Time;durP1;ratioP1;P1;durP2;ratioP2;P2;SDS_P1;SDS_P2;PMS_P1;PMS_P2;Temp;Humidity;BMP_temperature;BMP_pressure;BME280_temperature;BME280_humidity;BME280_pressure;Samples;Min_cycle;Max_cycle;Signal;HPM_P1;HPM_P2
2021/03/14 00:01:32;;;;;;;10.65;2.55;;;;;;;7.05;72.37;98061.22;4995494;28;20046;-83
2021/03/14 00:03:58;;;;;;;7.57;2.08;;;;;;;7.07;72.49;98058.50;4991588;28;20134;-83
2021/03/14 00:06:24;;;;;;;9.73;2.60;;;;;;;7.08;72.26;98066.25;4977269;28;20520;-83
2021/03/14 00:08:51;;;;;;;11.18;1.90;;;;;;;7.09;72.45;98062.69;4976007;28;20053;-83
2021/03/14 00:11:17;;;;;;;12.80;2.05;;;;;;;7.11;72.37;98073.88;4977509;28;20067;-83
2021/03/14 00:13:43;;;;;;;8.30;2.10;;;;;;;7.13;72.46;98081.59;4975914;28;20047;-83
2021/03/14 00:16:09;;;;;;;6.50;2.30;;;;;;;7.13;72.74;98084.22;4977130;28;20055;-83
2021/03/14 00:18:41;;;;;;;9.27;2.10;;;;;;;7.12;72.19;98075.56;4975897;28;20063;-83
2021/03/14 00:21:08;;;;;;;10.55;2.22;;;;;;;7.13;72.47;98081.59;4976325;28;20433;-84
2021/03/14 00:23:35;;;;;;;9.98;2.45;;;;;;;7.13;72.06;98079.00;4977163;28;20061;-83
2021/03/14 00:26:03;;;;;;;9.23;2.20;;;;;;;7.13;72.36;98095.53;4994681;28;20050;-83
2021/03/14 00:28:29;;;;;;;10.23;2.42;;;;;;;7.13;72.05;98092.94;4996843;28;20394;-83
2021/03/14 00:30:56;;;;;;;8.82;2.28;;;;;;;7.12;72.35;98095.66;4996146;28;20089;-84
2021/03/14 00:33:23;;;;;;;6.50;2.40;;;;;;;7.12;72.24;98095.66;4981803;28;20517;-83
2021/03/14 00:35:50;;;;;;;10.13;2.47;;;;;;;7.12;72.38;98104.34;4976613;28;20050;-83
2021/03/14 00:38:16;;;;;;;10.73;2.30;;;;;;;7.12;72.50;98117.44;4977003;28;20390;-83
2021/03/14 00:40:42;;;;;;;6.13;2.10;;;;;;;7.12;72.40;98114.81;4976682;28;20053;-84
2021/03/14 00:43:09;;;;;;;13.57;2.97;;;;;;;7.11;72.20;98114.91;4976792;28;20482;-83
2021/03/14 00:45:37;;;;;;;11.88;2.63;;;;;;;7.09;72.50;98122.88;4976504;28;20054;-83
2021/03/14 00:48:13;;;;;;;11.85;2.47;;;;;;;7.08;72.08;98131.66;4976704;28;20109;-84
2021/03/14 00:50:42;;;;;;;10.10;2.92;;;;;;;7.08;72.36;98129.03;4977855;28;20461;-83
2021/03/14 00:53:09;;;;;;;14.52;2.53;;;;;;;7.07;72.21;98130.00;4996047;28;20050;-84
2021/03/14 00:55:35;;;;;;;11.30;2.00;;;;;;;7.07;72.17;98124.75;4994357;28;20054;-83
2021/03/14 00:58:02;;;;;;;22.00;3.05;;;;;;;7.07;72.13;98134.38;4996108;28;20057;-84
2021/03/14 01:00:28;;;;;;;10.57;2.60;;;;;;;7.05;72.12;98142.34;4996259;28;20055;-84
2021/03/14 01:02:55;;;;;;;6.75;2.17;;;;;;;7.06;72.71;98148.41;4978465;28;20454;-83
2021/03/14 01:05:21;;;;;;;13.23;2.53;;;;;;;7.03;72.12;98152.91;4975237;28;20057;-83
2021/03/14 01:07:47;;;;;;;11.70;2.70;;;;;;;7.05;72.51;98147.56;4975427;28;20061;-84
2021/03/14 01:10:14;;;;;;;9.63;2.22;;;;;;;7.04;72.35;98157.19;4975079;28;20497;-83
2021/03/14 01:12:41;;;;;;;15.30;2.78;;;;;;;7.03;72.67;98160.75;4977490;28;20081;-84
2021/03/14 01:15:10;;;;;;;9.70;2.20;;;;;;;7.02;72.15;98155.59;4975745;28;20050;-83
2021/03/14 01:17:37;;;;;;;12.18;2.65;;;;;;;7.01;72.67;98165.25;4976455;28;20058;-83
2021/03/14 01:20:05;;;;;;;12.60;2.45;;;;;;;7.01;72.38;98170.50;4975434;28;20090;-84
2021/03/14 01:22:32;;;;;;;12.60;2.50;;;;;;;7.00;72.83;98165.34;4991177;28;20088;-83
2021/03/14 01:24:59;;;;;;;9.73;2.47;;;;;;;7.01;72.76;98177.50;4994293;28;20058;-84
2021/03/14 01:27:25;;;;;;;14.50;2.60;;;;;;;6.98;72.39;98177.69;4995503;28;20050;-83
2021/03/14 01:29:51;;;;;;;14.38;2.38;;;;;;;6.99;72.68;98176.78;4994630;28;20058;-84
2021/03/14 01:32:18;;;;;;;11.32;2.28;;;;;;;6.99;72.92;98177.59;4981882;28;20070;-83
2021/03/14 01:34:47;;;;;;;14.77;2.55;;;;;;;7.00;72.54;98179.25;4975207;28;20128;-84
2021/03/14 01:37:15;;;;;;;13.63;2.72;;;;;;;7.02;72.85;98179.16;4974623;28;20057;-83
2021/03/14 01:39:41;;;;;;;19.67;3.47;;;;;;;7.01;72.48;98187.97;4975993;28;20055;-83
2021/03/14 01:42:08;;;;;;;12.18;2.92;;;;;;;7.02;72.82;98187.00;4977928;28;20480;-83
2021/03/14 01:44:34;;;;;;;15.90;3.13;;;;;;;7.00;72.45;98187.09;4981803;28;20428;-83
2021/03/14 01:47:01;;;;;;;10.63;2.75;;;;;;;7.01;72.48;98187.97;4994977;28;20512;-83
2021/03/14 01:49:28;;;;;;;17.85;2.83;;;;;;;7.02;72.58;98192.25;4995418;28;20057;-83
2021/03/14 01:51:54;;;;;;;8.55;2.80;;;;;;;7.01;72.61;98183.56;4992195;28;20053;-84
2021/03/14 01:54:20;;;;;;;15.57;3.15;;;;;;;7.02;72.80;98198.31;4994898;28;20046;-83
2021/03/14 01:56:46;;;;;;;11.80;2.95;;;;;;;7.04;72.95;98200.84;4995014;28;20058;-83
2021/03/14 01:59:13;;;;;;;15.80;3.35;;;;;;;7.03;72.83;98200.00;4993785;28;20054;-83
2021/03/14 02:01:39;;;;;;;13.63;2.75;;;;;;;7.04;72.77;98206.88;4986822;28;20055;-83
2021/03/14 02:04:06;;;;;;;7.00;2.33;;;;;;;7.05;72.75;98210.34;4975193;28;20191;-83
2021/03/14 02:06:32;;;;;;;9.25;2.42;;;;;;;7.06;73.20;98209.41;4975139;28;20062;-84
2021/03/14 02:08:58;;;;;;;14.32;3.22;;;;;;;7.07;72.92;98225.94;4975421;28;20054;-83
2021/03/14 02:11:27;;;;;;;9.98;2.22;;;;;;;7.10;73.17;98237.03;4979412;28;20053;-84
2021/03/14 02:13:55;;;;;;;13.63;2.85;;;;;;;7.12;73.19;98239.56;4994865;28;20386;-83
2021/03/14 02:16:34;;;;;;;13.02;2.53;;;;;;;7.10;72.07;98236.22;4993674;28;20050;-84
2021/03/14 02:19:03;;;;;;;10.82;2.40;;;;;;;7.14;72.72;98245.53;4994437;28;20068;-84
2021/03/14 02:21:33;;;;;;;13.68;2.40;;;;;;;7.13;72.46;98249.06;4987275;28;20043;-84
2021/03/14 02:24:01;;;;;;;19.55;3.92;;;;;;;7.14;72.95;98250.78;4975325;28;20051;-83
2021/03/14 02:26:45;;;;;;;12.98;2.80;;;;;;;7.11;71.66;98254.41;4974921;28;20050;-83
2021/03/14 02:29:15;;;;;;;13.35;2.95;;;;;;;7.14;72.49;98262.06;4974081;28;20046;-84
2021/03/14 02:31:44;;;;;;;9.45;2.50;;;;;;;7.16;72.86;98269.81;4982114;28;20521;-84
2021/03/14 02:34:14;;;;;;;10.13;2.45;;;;;;;7.15;72.70;98266.34;4976243;28;20051;-84
2021/03/14 02:36:43;;;;;;;12.20;3.03;;;;;;;7.16;72.99;98262.81;4974285;28;20051;-84
2021/03/14 02:39:13;;;;;;;10.38;3.15;;;;;;;7.16;72.53;98269.81;4974025;28;20059;-84
2021/03/14 02:41:41;;;;;;;9.07;2.80;;;;;;;7.17;72.73;98267.09;4981194;28;20054;-84
2021/03/14 02:44:12;;;;;;;15.43;3.72;;;;;;;7.17;72.82;98282.81;4994512;28;20053;-84
2021/03/14 02:46:39;;;;;;;13.85;3.03;;;;;;;7.17;73.09;98282.81;4993645;28;20057;-84
2021/03/14 02:49:06;;;;;;;14.05;2.80;;;;;;;7.18;73.08;98286.25;4993313;28;20101;-84
2021/03/14 02:51:33;;;;;;;9.15;2.40;;;;;;;7.19;73.13;98292.31;4989089;28;20054;-84
2021/03/14 02:54:00;;;;;;;11.18;2.83;;;;;;;7.18;72.96;98299.34;4973463;28;20502;-83
2021/03/14 02:56:26;;;;;;;13.45;2.70;;;;;;;7.17;72.84;98295.88;4973886;28;20165;-84
2021/03/14 02:58:54;;;;;;;15.18;2.47;;;;;;;7.16;72.65;98304.69;4974792;28;20055;-84
2021/03/14 03:01:21;;;;;;;11.70;2.97;;;;;;;7.15;72.56;98308.22;4976714;28;20049;-84
2021/03/14 03:03:48;;;;;;;10.80;2.55;;;;;;;7.13;72.68;98307.50;4987032;28;20073;-83
2021/03/14 03:06:15;;;;;;;13.43;3.03;;;;;;;7.12;72.87;98315.44;4974730;28;20046;-83
2021/03/14 03:08:43;;;;;;;8.77;2.60;;;;;;;7.10;72.74;98323.38;4973503;28;20058;-84
2021/03/14 03:11:13;;;;;;;12.95;2.97;;;;;;;7.09;72.36;98331.34;4973412;28;20077;-84
2021/03/14 03:13:40;;;;;;;15.13;3.20;;;;;;;7.08;72.58;98333.13;4976548;28;20081;-83
2021/03/14 03:16:12;;;;;;;16.25;3.55;;;;;;;7.06;72.62;98340.22;4993669;28;20061;-85
2021/03/14 03:18:41;;;;;;;12.20;3.10;;;;;;;7.06;72.97;98342.84;4994307;28;20054;-84
2021/03/14 03:21:09;;;;;;;10.20;2.60;;;;;;;7.05;73.10;98349.03;4993994;28;20097;-84
2021/03/14 03:23:36;;;;;;;12.55;2.80;;;;;;;7.07;72.89;98354.16;4989592;28;20042;-83
2021/03/14 03:26:03;;;;;;;10.65;2.70;;;;;;;7.06;72.86;98363.78;5020361;23;20057;-87
2021/03/14 03:28:29;;;;;;;11.90;3.30;;;;;;;7.06;73.29;98369.00;4992709;28;20058;-87
2021/03/14 03:30:55;;;;;;;8.18;2.72;;;;;;;7.07;73.21;98362.88;4993756;28;20416;-87
2021/03/14 03:33:22;;;;;;;13.35;2.67;;;;;;;7.08;72.94;98363.69;4992213;28;20047;-88
2021/03/14 03:35:49;;;;;;;13.02;2.90;;;;;;;7.09;73.58;98379.28;4993607;28;20105;-87
2021/03/14 03:38:15;;;;;;;14.25;2.70;;;;;;;7.10;72.98;98377.53;4992599;28;20054;-87
2021/03/14 03:40:42;;;;;;;14.77;3.17;;;;;;;7.09;72.74;98376.66;4993585;28;20535;-87
2021/03/14 03:43:08;;;;;;;11.57;3.03;;;;;;;7.11;73.32;98384.44;4993756;28;20428;-87
2021/03/14 03:45:39;;;;;;;11.13;2.58;;;;;;;7.10;72.83;98374.91;4991969;28;20411;-86
2021/03/14 03:48:07;;;;;;;10.60;2.78;;;;;;;7.12;73.12;98399.19;4991897;28;20050;-85
2021/03/14 03:50:46;;;;;;;15.40;3.53;;;;;;;7.12;73.07;98391.31;4992263;28;20169;-85
2021/03/14 03:53:14;;;;;;;18.23;3.20;;;;;;;7.12;73.09;98409.66;4992236;28;20043;-87
2021/03/14 03:55:43;;;;;;;20.63;4.25;;;;;;;7.09;72.38;98404.59;4993173;28;20054;-86
2021/03/14 03:58:10;;;;;;;15.45;3.42;;;;;;;7.11;72.99;98415.81;4995258;28;20046;-87
2021/03/14 04:00:36;;;;;;;11.75;3.17;;;;;;;7.09;73.08;98415.91;4995927;28;20054;-86
2021/03/14 04:03:04;;;;;;;16.17;3.55;;;;;;;7.08;72.81;98419.47;4996839;28;20072;-86
2021/03/14 04:05:31;;;;;;;14.52;3.10;;;;;;;7.07;73.18;98425.66;4996157;28;20504;-86
2021/03/14 04:07:58;;;;;;;12.30;2.65;;;;;;;7.07;73.09;98427.44;4995242;28;20057;-87
2021/03/14 04:10:26;;;;;;;14.48;2.90;;;;;;;7.06;72.95;98436.22;4996908;28;20054;-86
2021/03/14 04:12:54;;;;;;;11.90;3.42;;;;;;;7.02;72.73;98430.31;4995780;28;20051;-87
2021/03/14 04:15:24;;;;;;;8.02;2.25;;;;;;;7.00;72.58;98429.59;4994993;28;20062;-87
2021/03/14 04:17:53;;;;;;;11.60;3.00;;;;;;;6.99;73.08;98443.63;4995268;28;20050;-86
2021/03/14 04:20:23;;;;;;;12.20;2.58;;;;;;;6.97;72.89;98443.72;4996517;28;20105;-86
2021/03/14 04:22:54;;;;;;;14.25;3.85;;;;;;;6.95;73.00;98444.75;4995466;28;20057;-87
2021/03/14 04:25:22;;;;;;;6.72;2.75;;;;;;;6.95;73.32;98458.66;4994292;28;20054;-87
2021/03/14 04:27:49;;;;;;;11.45;3.00;;;;;;;6.94;73.11;98456.97;4996430;28;20397;-87
2021/03/14 04:30:18;;;;;;;16.90;3.38;;;;;;;6.93;73.05;98457.06;4996324;28;20057;-87
2021/03/14 04:32:45;;;;;;;14.52;3.22;;;;;;;6.90;72.91;98464.19;4995435;28;20069;-87
2021/03/14 04:35:12;;;;;;;12.32;3.47;;;;;;;6.89;72.98;98465.09;4995848;28;20054;-86
2021/03/14 04:37:40;;;;;;;13.07;3.20;;;;;;;6.87;73.03;98472.22;4996320;28;20054;-87
2021/03/14 04:40:09;;;;;;;11.43;3.70;;;;;;;6.85;73.00;98476.72;4996151;28;20065;-86
2021/03/14 04:42:38;;;;;;;14.57;3.38;;;;;;;6.83;73.05;98478.56;4996148;28;20046;-87
2021/03/14 04:45:06;;;;;;;11.32;3.85;;;;;;;6.82;72.98;98484.75;4994229;28;20057;-86
2021/03/14 04:47:32;;;;;;;9.43;3.95;;;;;;;6.78;73.17;98486.69;4995738;28;20073;-87
2021/03/14 04:49:59;;;;;;;11.88;3.42;;;;;;;6.77;73.34;98486.81;4996130;28;20125;-87
2021/03/14 04:52:25;;;;;;;10.32;3.28;;;;;;;6.74;73.50;98490.47;4994751;28;20515;-87
2021/03/14 04:54:53;;;;;;;10.25;2.65;;;;;;;6.73;73.49;98495.78;4994433;28;20065;-86
2021/03/14 04:57:21;;;;;;;13.85;3.13;;;;;;;6.72;73.82;98507.16;4995955;28;20069;-87
2021/03/14 04:59:49;;;;;;;18.42;3.13;;;;;;;6.72;73.79;98508.00;4995965;28;20051;-87
2021/03/14 05:02:15;;;;;;;12.57;2.90;;;;;;;6.74;73.89;98516.63;4994550;28;20046;-87
2021/03/14 05:04:44;;;;;;;10.02;2.97;;;;;;;6.75;74.39;98530.53;4995369;28;20050;-88
2021/03/14 05:07:13;;;;;;;12.15;2.80;;;;;;;6.74;73.74;98519.22;4994519;28;20050;-87
2021/03/14 05:09:41;;;;;;;9.95;2.28;;;;;;;6.74;73.56;98526.22;4993550;28;20069;-87
2021/03/14 05:12:09;;;;;;;9.52;3.00;;;;;;;6.75;73.70;98522.66;4994344;28;20046;-86
2021/03/14 05:14:37;;;;;;;12.27;2.67;;;;;;;6.73;73.77;98528.00;4994070;28;20047;-86
2021/03/14 05:17:05;;;;;;;17.33;3.60;;;;;;;6.72;73.71;98534.16;4995388;28;20506;-87
2021/03/14 05:19:33;;;;;;;16.73;3.20;;;;;;;6.72;73.86;98541.16;4994379;28;20046;-87
2021/03/14 05:22:00;;;;;;;15.55;2.90;;;;;;;6.71;74.02;98537.72;4995403;28;20509;-87
2021/03/14 05:24:27;;;;;;;13.73;2.92;;;;;;;6.69;73.95;98544.81;4994594;28;20046;-87
2021/03/14 05:27:00;;;;;;;15.48;3.13;;;;;;;6.68;73.91;98547.50;4995243;28;20073;-87
2021/03/14 05:29:26;;;;;;;16.17;3.50;;;;;;;6.68;73.82;98550.13;4994229;28;20046;-87
2021/03/14 05:31:55;;;;;;;14.27;2.80;;;;;;;6.66;74.19;98560.69;4995190;28;20054;-87
2021/03/14 05:34:23;;;;;;;11.27;2.58;;;;;;;6.65;74.05;98566.84;4994882;28;20046;-87
2021/03/14 05:36:50;;;;;;;13.48;2.83;;;;;;;6.67;74.19;98571.97;4995182;28;20054;-87
2021/03/14 05:39:16;;;;;;;6.70;2.25;;;;;;;6.65;74.02;98574.69;4995060;28;20051;-87
2021/03/14 05:41:44;;;;;;;3.65;1.50;;;;;;;6.63;73.36;98576.56;4994008;28;20050;-87
2021/03/14 05:44:11;;;;;;;3.75;1.25;;;;;;;6.61;73.30;98578.41;4993104;28;20050;-87
2021/03/14 05:46:37;;;;;;;6.72;1.50;;;;;;;6.59;73.33;98581.16;4993764;28;20057;-86
2021/03/14 05:49:05;;;;;;;2.72;1.50;;;;;;;6.55;73.04;98592.72;4995132;28;20411;-87
2021/03/14 05:51:35;;;;;;;4.47;1.23;;;;;;;6.49;72.89;98601.75;4993866;28;20054;-87
2021/03/14 05:54:03;;;;;;;7.65;1.15;;;;;;;6.47;73.07;98593.16;4993269;28;20060;-87
2021/03/14 05:56:30;;;;;;;6.07;1.63;;;;;;;6.43;73.38;98606.50;4974716;28;20137;-87
2021/03/14 05:58:57;;;;;;;9.07;1.92;;;;;;;6.41;73.69;98605.75;4975354;28;20080;-87
2021/03/14 06:01:28;;;;;;;5.43;1.67;;;;;;;6.36;73.37;98609.47;4975580;28;20054;-87
2021/03/14 06:03:56;;;;;;;8.65;1.50;;;;;;;6.34;73.76;98606.09;4976023;28;20421;-87
2021/03/14 06:06:23;;;;;;;6.53;1.58;;;;;;;6.33;73.61;98614.03;4994240;28;20065;-86
2021/03/14 06:08:53;;;;;;;6.72;1.88;;;;;;;6.28;72.60;98618.69;4993267;28;20050;-86
2021/03/14 06:11:20;;;;;;;8.05;2.15;;;;;;;6.27;73.49;98614.41;4994692;28;20065;-87
2021/03/14 06:13:46;;;;;;;5.43;1.90;;;;;;;6.25;73.73;98620.53;4992847;28;20489;-85
2021/03/14 06:16:13;;;;;;;10.63;2.05;;;;;;;6.24;73.75;98618.00;4992982;28;20057;-87
2021/03/14 06:18:40;;;;;;;8.95;2.80;;;;;;;6.22;74.32;98625.09;4993191;28;20050;-86
2021/03/14 06:21:27;;;;;;;8.15;2.00;;;;;;;6.18;73.31;98627.06;4993003;28;20057;-86
2021/03/14 06:24:14;;;;;;;5.78;1.70;;;;;;;6.23;74.47;98638.09;4992953;28;20046;-87
2021/03/14 06:26:44;;;;;;;6.05;2.05;;;;;;;6.24;74.61;98639.75;4974768;28;20054;-87
2021/03/14 06:29:19;;;;;;;7.13;2.30;;;;;;;6.24;74.02;98657.19;4974701;28;20051;-88
2021/03/14 06:31:47;;;;;;;11.27;2.33;;;;;;;6.28;74.69;98670.97;4973622;28;20058;-87
2021/03/14 06:34:25;;;;;;;13.18;3.20;;;;;;;6.27;73.96;98669.28;4976345;28;20047;-87
2021/03/14 06:36:52;;;;;;;8.00;3.00;;;;;;;6.31;74.44;98682.06;4993924;28;20062;-87
2021/03/14 06:39:29;;;;;;;8.20;2.00;;;;;;;6.30;74.21;98680.41;4992845;28;20058;-87
2021/03/14 06:41:56;;;;;;;5.53;2.85;;;;;;;6.30;74.35;98690.84;4993002;28;20061;-88
2021/03/14 06:44:43;;;;;;;8.02;2.47;;;;;;;6.31;74.52;98692.53;4992681;28;20053;-87
2021/03/14 06:47:10;;;;;;;7.88;2.40;;;;;;;6.30;74.33;98705.69;4994030;28;20061;-87
2021/03/14 06:49:38;;;;;;;7.72;2.70;;;;;;;6.28;73.80;98702.31;4992885;28;20138;-87
2021/03/14 06:52:07;;;;;;;7.05;2.25;;;;;;;6.27;74.29;98709.31;4993722;28;20540;-87
2021/03/14 06:54:38;;;;;;;8.52;2.35;;;;;;;6.24;73.65;98717.31;4993270;28;20346;-87
2021/03/14 06:57:04;;;;;;;10.70;2.75;;;;;;;6.25;74.38;98719.84;4993733;28;20497;-87
2021/03/14 06:59:35;;;;;;;10.80;2.60;;;;;;;6.24;74.25;98722.53;4992642;28;20080;-87
2021/03/14 07:02:07;;;;;;;8.20;2.63;;;;;;;6.22;74.15;98729.63;4992528;28;20057;-87
2021/03/14 07:04:40;;;;;;;6.67;1.67;;;;;;;6.23;74.31;98720.84;4993263;28;20050;-87
2021/03/14 07:07:11;;;;;;;3.72;1.80;;;;;;;6.24;74.61;98746.06;4992660;28;20057;-87
2021/03/14 07:09:37;;;;;;;10.00;2.72;;;;;;;6.24;74.50;98741.69;4993736;28;20050;-88
2021/03/14 07:12:28;;;;;;;3.58;1.60;;;;;;;6.22;73.80;98746.16;4992767;28;20053;-88
2021/03/14 07:14:54;;;;;;;5.75;1.75;;;;;;;6.28;74.64;98754.59;4991968;28;20519;-87
2021/03/14 07:17:32;;;;;;;6.90;1.90;;;;;;;6.27;74.23;98758.13;4992712;28;20050;-87
2021/03/14 07:20:15;;;;;;;5.25;2.00;;;;;;;6.29;74.60;98746.66;4993924;28;20104;-87
2021/03/14 07:22:55;;;;;;;5.93;2.13;;;;;;;6.31;74.86;98750.03;4992617;28;20073;-87
2021/03/14 07:25:23;;;;;;;8.02;2.10;;;;;;;6.33;74.72;98768.25;4992882;28;20570;-87
2021/03/14 07:27:50;;;;;;;8.05;2.25;;;;;;;6.34;74.77;98762.94;4992288;28;20056;-87
2021/03/14 07:30:18;;;;;;;4.40;1.73;;;;;;;6.34;74.73;98767.31;4993685;28;20054;-87
2021/03/14 07:33:25;;;;;;;3.13;1.73;;;;;;;6.35;74.72;98772.44;4994622;28;20046;-87
2021/03/14 07:36:36;;;;;;;7.47;2.28;;;;;;;6.43;74.98;98773.81;4985026;28;20057;-87
2021/03/14 07:39:05;;;;;;;6.25;2.20;;;;;;;6.46;75.58;98784.94;4997094;28;20046;-87
2021/03/14 07:41:31;;;;;;;5.03;2.40;;;;;;;6.49;75.66;98782.16;4997290;28;20547;-87
2021/03/14 07:44:03;;;;;;;5.85;1.98;;;;;;;6.54;75.58;98796.75;4995299;28;20049;-87
2021/03/14 07:46:30;;;;;;;8.40;2.53;;;;;;;6.61;75.74;98801.53;4996216;28;20054;-88
2021/03/14 07:49:04;;;;;;;6.43;2.03;;;;;;;6.64;74.51;98803.97;4996906;28;20060;-87
2021/03/14 07:51:31;;;;;;;4.57;1.70;;;;;;;6.69;74.67;98818.56;4996032;28;20065;-87
2021/03/14 07:54:03;;;;;;;7.22;1.77;;;;;;;6.70;74.63;98818.50;4996500;28;20054;-87
2021/03/14 07:56:39;;;;;;;4.57;2.10;;;;;;;6.72;74.29;98826.22;4997170;28;20054;-87
2021/03/14 07:59:09;;;;;;;7.25;2.40;;;;;;;6.74;74.20;98824.38;4995909;28;20058;-87
2021/03/14 08:01:37;;;;;;;9.90;2.35;;;;;;;6.77;74.82;98825.03;4996964;28;20061;-87
2021/03/14 08:04:23;;;;;;;4.30;2.25;;;;;;;6.78;75.02;98828.50;4996005;28;20062;-87
2021/03/14 08:06:51;;;;;;;7.97;2.20;;;;;;;6.79;74.55;98832.81;4995435;28;20062;-87
2021/03/14 08:09:45;;;;;;;5.35;2.13;;;;;;;6.76;74.21;98849.50;4997537;28;20060;-87
2021/03/14 08:12:17;;;;;;;7.93;2.20;;;;;;;6.80;74.23;98859.81;4996127;28;20058;-87
2021/03/14 08:14:45;;;;;;;10.68;2.35;;;;;;;6.83;74.52;98867.47;4995180;28;20054;-87
2021/03/14 08:17:36;;;;;;;7.82;2.35;;;;;;;6.82;74.54;98874.50;4995046;28;20489;-87
2021/03/14 08:20:05;;;;;;;11.07;2.20;;;;;;;6.84;74.57;98884.88;4995573;28;20066;-87
2021/03/14 08:22:37;;;;;;;5.75;2.65;;;;;;;6.83;74.47;98883.16;4996455;28;20050;-88
2021/03/14 08:25:22;;;;;;;7.35;2.85;;;;;;;6.81;74.12;98888.50;4996235;28;20113;-87
2021/03/14 08:27:51;;;;;;;5.93;2.63;;;;;;;6.84;74.99;98883.09;4996339;28;20057;-87
2021/03/14 08:30:42;;;;;;;11.40;3.20;;;;;;;6.82;74.84;98884.97;4996579;28;20085;-87
2021/03/14 08:33:17;;;;;;;7.95;3.10;;;;;;;6.88;74.90;98889.84;4995466;28;20046;-86
2021/03/14 08:35:47;;;;;;;12.75;3.08;;;;;;;6.94;75.83;98888.66;4993623;28;20042;-87
2021/03/14 08:38:43;;;;;;;9.05;3.55;;;;;;;6.96;75.26;98894.66;4996585;28;20050;-87
2021/03/14 08:41:21;;;;;;;14.98;3.60;;;;;;;7.04;75.44;98905.50;4996234;28;20050;-87
2021/03/14 08:44:13;;;;;;;13.30;3.35;;;;;;;7.11;75.31;98905.19;4993331;28;20393;-87
2021/03/14 08:46:48;;;;;;;11.32;3.50;;;;;;;7.21;75.43;98911.56;4995606;28;20408;-87
2021/03/14 08:49:19;;;;;;;13.75;3.65;;;;;;;7.25;75.58;98913.09;4995142;28;20054;-87
2021/03/14 08:51:46;;;;;;;9.98;3.13;;;;;;;7.32;76.14;98915.38;4995276;28;20064;-87
2021/03/14 08:54:35;;;;;;;13.68;3.55;;;;;;;7.36;75.46;98920.31;4976148;28;20054;-87
2021/03/14 08:57:07;;;;;;;10.27;3.20;;;;;;;7.40;75.46;98921.84;4993807;28;20061;-87
2021/03/14 08:59:33;;;;;;;10.63;3.53;;;;;;;7.47;75.83;98924.94;4994663;28;20497;-87
2021/03/14 09:02:02;;;;;;;10.13;3.38;;;;;;;7.50;75.86;98929.16;4994509;28;20050;-87
2021/03/14 09:04:33;;;;;;;9.68;3.50;;;;;;;7.54;75.61;98918.44;4995226;28;20069;-86
2021/03/14 09:07:05;;;;;;;6.82;3.65;;;;;;;7.61;75.32;98924.16;4994722;28;20081;-86
2021/03/14 09:09:32;;;;;;;7.65;3.75;;;;;;;7.68;75.74;98924.63;4995960;28;20042;-87
2021/03/14 09:12:04;;;;;;;12.25;3.40;;;;;;;7.72;74.91;98935.78;4994247;28;20050;-86
2021/03/14 09:14:39;;;;;;;13.20;3.63;;;;;;;7.74;74.62;98941.78;4995034;28;20061;-87
2021/03/14 09:17:07;;;;;;;9.57;3.65;;;;;;;7.78;74.29;98935.44;4994493;28;20408;-86
2021/03/14 09:19:39;;;;;;;6.97;2.80;;;;;;;7.76;74.05;98932.91;4994520;28;20058;-87
2021/03/14 09:22:11;;;;;;;6.22;2.92;;;;;;;7.72;73.43;98941.00;4994863;28;20406;-87
2021/03/14 09:25:09;;;;;;;8.25;3.20;;;;;;;7.69;74.01;98942.03;4995133;28;20086;-87
2021/03/14 09:27:38;;;;;;;;;;;;;;;7.73;73.67;98937.47;5010353;23;20504;-87
2021/03/14 09:30:22;;;;;;;8.55;3.90;;;;;;;7.76;74.40;98947.75;4993754;28;20028;-87
2021/03/14 09:33:24;;;;;;;11.90;4.00;;;;;;;7.78;74.96;98957.22;4959555;28;20141;-87
2021/03/14 09:36:50;;;;;;;11.48;4.60;;;;;;;7.78;74.28;98957.22;4981299;28;20137;-88
2021/03/14 09:39:24;;;;;;;9.50;4.15;;;;;;;7.83;74.89;98956.97;4995328;28;20125;-87
2021/03/14 09:41:51;;;;;;;16.20;4.47;;;;;;;7.89;75.56;98961.81;4993668;28;20504;-87
2021/03/14 09:44:19;;;;;;;13.35;4.60;;;;;;;7.91;75.28;98966.97;4974302;28;20061;-87
2021/03/14 09:46:55;;;;;;;12.32;4.57;;;;;;;7.91;74.15;98972.22;4975596;28;20046;-87
2021/03/14 09:49:22;;;;;;;17.23;4.50;;;;;;;7.97;75.60;98968.41;4974215;28;20505;-87
2021/03/14 09:51:55;;;;;;;12.27;4.85;;;;;;;7.98;74.76;98972.69;4974485;28;20077;-87
2021/03/14 09:54:23;;;;;;;11.10;4.28;;;;;;;8.00;75.64;98984.78;4992803;28;20046;-86
2021/03/14 09:56:53;;;;;;;11.25;4.68;;;;;;;8.04;75.96;98988.91;4994828;28;20050;-87
2021/03/14 09:59:26;;;;;;;12.23;5.00;;;;;;;8.08;75.66;98989.59;4994728;28;20412;-87
2021/03/14 10:01:55;;;;;;;9.63;4.65;;;;;;;8.16;76.10;98997.00;4994132;28;20054;-88
2021/03/14 10:04:22;;;;;;;12.40;4.85;;;;;;;8.22;75.81;98994.00;4992561;28;20054;-88
2021/03/14 10:06:48;;;;;;;10.60;5.30;;;;;;;8.29;76.30;98999.72;4994301;28;20065;-88
2021/03/14 10:09:22;;;;;;;11.90;4.45;;;;;;;8.35;75.51;99001.97;4994557;28;20054;-88
2021/03/14 10:11:50;;;;;;;8.68;4.45;;;;;;;8.46;76.76;99004.78;4994513;28;20062;-88
2021/03/14 10:14:18;;;;;;;9.32;5.13;;;;;;;8.57;76.57;99005.97;4994270;28;20050;-88
2021/03/14 10:16:47;;;;;;;10.90;4.88;;;;;;;8.67;75.97;99006.25;4994285;28;20058;-88
2021/03/14 10:19:15;;;;;;;9.00;4.47;;;;;;;8.78;76.36;99010.84;4994905;28;20073;-88
2021/03/14 10:21:46;;;;;;;16.10;4.55;;;;;;;8.89;76.08;99011.00;4994204;28;20517;-88
2021/03/14 10:24:31;;;;;;;7.95;4.05;;;;;;;8.97;73.77;99014.00;4993355;28;20054;-88
2021/03/14 10:27:04;;;;;;;6.25;4.25;;;;;;;9.10;74.74;99002.72;4993907;28;20050;-88
2021/03/14 10:29:38;;;;;;;11.43;4.32;;;;;;;9.23;76.02;99014.13;4994719;28;20398;-88
2021/03/14 10:32:18;;;;;;;7.43;3.80;;;;;;;9.34;73.04;99007.34;4993036;28;20050;-89
2021/03/14 10:34:52;;;;;;;11.25;3.88;;;;;;;9.47;73.80;99018.78;4993382;28;20144;-88
2021/03/14 10:37:32;;;;;;;9.10;4.22;;;;;;;9.57;73.66;99019.00;4993535;28;20057;-89
2021/03/14 10:40:00;;;;;;;6.78;3.95;;;;;;;9.69;75.27;99024.41;4992930;28;20050;-89
2021/03/14 10:42:28;;;;;;;11.75;4.40;;;;;;;9.79;74.98;99030.75;4994434;28;20042;-88
2021/03/14 10:45:08;;;;;;;9.52;4.22;;;;;;;9.84;71.89;99027.81;4993192;28;20050;-88
2021/03/14 10:47:35;;;;;;;11.05;4.63;;;;;;;9.92;73.81;99030.78;4993215;28;20046;-88
2021/03/14 10:50:34;;;;;;;7.20;4.25;;;;;;;9.92;69.79;99036.03;4992820;28;20050;-88
2021/03/14 10:53:09;;;;;;;9.25;3.97;;;;;;;9.95;72.93;99035.84;4993066;28;20470;-88
2021/03/14 10:55:37;;;;;;;14.50;5.30;;;;;;;10.01;74.25;99029.31;4992520;28;20054;-88
2021/03/14 10:58:16;;;;;;;12.25;4.40;;;;;;;10.01;71.08;99040.69;4993829;28;20047;-88
2021/03/14 11:00:54;;;;;;;9.77;3.60;;;;;;;10.07;72.03;99035.97;4993450;28;20493;-88
2021/03/14 11:03:27;;;;;;;8.07;4.30;;;;;;;10.14;72.59;99047.75;4993340;28;20481;-88
2021/03/14 11:06:06;;;;;;;9.98;4.75;;;;;;;10.15;70.35;99047.66;4992842;28;20082;-88
2021/03/14 11:08:46;;;;;;;10.60;5.00;;;;;;;10.22;70.22;99045.47;4997054;28;20054;-88
2021/03/14 11:11:12;;;;;;;10.05;4.40;;;;;;;10.32;73.30;99047.47;4996954;28;20050;-88
2021/03/14 11:13:38;;;;;;;6.75;3.92;;;;;;;10.38;73.13;99047.03;4997703;28;20441;-88
2021/03/14 11:16:06;;;;;;;12.65;4.35;;;;;;;10.45;72.44;99051.00;4996763;28;20057;-88
2021/03/14 11:18:33;;;;;;;10.55;4.00;;;;;;;10.51;70.27;99041.84;4998314;28;20076;-87
2021/03/14 11:21:02;;;;;;;8.38;3.70;;;;;;;10.57;72.04;99041.41;4996857;28;20051;-87
2021/03/14 11:23:29;;;;;;;9.27;4.90;;;;;;;10.69;73.72;99044.97;4996327;28;20042;-88
2021/03/14 11:25:55;;;;;;;12.77;3.30;;;;;;;10.88;76.47;99043.72;4997561;28;20054;-88
2021/03/14 11:28:21;;;;;;;14.25;3.80;;;;;;;11.14;76.47;99041.88;4996579;28;20448;-88
2021/03/14 11:30:47;;;;;;;10.32;3.63;;;;;;;11.39;74.88;99036.63;4996715;28;20050;-88
2021/03/14 11:33:14;;;;;;;11.73;3.60;;;;;;;11.58;73.44;99034.34;4997769;28;20054;-88
2021/03/14 11:35:40;;;;;;;7.22;3.25;;;;;;;11.72;73.05;99032.50;4997478;28;20050;-88
2021/03/14 11:38:06;;;;;;;4.60;3.05;;;;;;;11.82;72.09;99032.66;4997827;28;20053;-88
2021/03/14 11:40:33;;;;;;;8.70;2.97;;;;;;;11.88;71.10;99036.66;4996604;28;20077;-88
2021/03/14 11:43:00;;;;;;;9.75;3.55;;;;;;;11.88;69.94;99036.66;4996447;28;20448;-88
2021/03/14 11:45:26;;;;;;;8.45;3.60;;;;;;;11.83;69.34;99034.34;4996987;28;20394;-88
2021/03/14 11:47:52;;;;;;;9.05;3.78;;;;;;;11.72;67.93;99037.78;4997362;28;20050;-88
2021/03/14 11:50:19;;;;;;;7.30;3.33;;;;;;;11.58;67.81;99042.25;4996274;28;20517;-88
2021/03/14 11:52:49;;;;;;;9.40;3.60;;;;;;;11.39;67.17;99040.13;4997467;28;20069;-88